If you wish to contribute or participate in the discussions about articles you are invited to join SKYbrary as a registered user

 Actions

Bagdogra Airport

From SKYbrary Wiki

VEBD
Airport
ICAO: VEBD
Summary
Name Bagdogra Airport
Region Asia and Pacific
Territory India IN.gif
Location Siliguri, West Bengal
Serving
Coordinates 26° 41' 6.11" N, 88° 19' 31.75" E
Runways
Designator Length Width Surface ROPS
18/36 2754 m9,035.433 ft
46 m150.919 ft
PEM /


METAR
Observation VEBD 181030Z 12006KT 6000 FEW030 SCT090 30/11 Q1009 NOSIG
Station Siliguri
Date/Time 18 March 2019 10:30:00
Wind direction 120°
Wind speed 06 kts
Lowest cloud amount few clouds
Temperature 30°C
Dew point 11°C
Humidity 30%
QNH 1009 hPa
Weather condition n/a

WX
Tag(s) Cumulonimbus
Tropical Revolving Storm

Bagdogra Airport

ICAO: VEBD IATA: IXB

Description

Bagdogra Airport or Civil Aerodrome Bagdogra is a civil enclave on a military airport that is located in the town of Bagdogra, 16 km8.639 nm
16,000 m
52,493.438 ft
west of the city of Siliguri, in the state of West Bengal, India.

Climatology

Humid Sub-tropical climate (Köppen climate classification Cwa) - Hot humid summers and cooler winter. Significant precipitation in all seasons but drier in the winter.

Maps

Terrain

Loading map...

Airport Layout

Loading map...


Accidents & Serious Incidents at or in vicinity of VEBD

None on SKYbrary